Time;durP1;ratioP1;P1;durP2;ratioP2;P2;SDS_P1;SDS_P2;PMS_P1;PMS_P2;Temp;Humidity;BMP_temperature;BMP_pressure;BME280_temperature;BME280_humidity;BME280_pressure;Samples;Min_cycle;Max_cycle;Signal;HPM_P1;HPM_P2
2022/05/20 00:03:19;;;;;;;3.60;1.98;;;23.00;68.80;;;;;;11008726;32;20049;-75
2022/05/20 00:09:21;;;;;;;1.25;1.02;;;23.00;68.80;;;;;;11022131;32;20027;-75
2022/05/20 00:15:26;;;;;;;4.80;1.80;;;23.00;69.00;;;;;;11022095;32;20037;-75
2022/05/20 00:21:28;;;;;;;2.35;1.70;;;22.80;69.20;;;;;;11021754;32;20022;-75
2022/05/20 00:27:30;;;;;;;2.55;1.65;;;22.70;69.50;;;;;;11021573;32;20014;-75
2022/05/20 00:33:34;;;;;;;2.62;1.73;;;22.70;69.20;;;;;;11021302;32;20019;-75
2022/05/20 00:39:36;;;;;;;2.10;1.40;;;22.80;69.00;;;;;;11017687;32;20077;-75
2022/05/20 00:45:40;;;;;;;3.05;1.98;;;22.80;68.50;;;;;;11020892;32;20030;-75
2022/05/20 00:51:44;;;;;;;3.95;1.83;;;22.60;68.80;;;;;;11020588;32;20048;-75
2022/05/20 00:57:55;;;;;;;3.35;1.67;;;22.60;69.10;;;;;;11020564;32;20100;-75
2022/05/20 01:03:58;;;;;;;3.12;1.70;;;22.60;68.90;;;;;;11007379;32;20050;-75
2022/05/20 01:10:00;;;;;;;2.75;1.95;;;22.50;69.30;;;;;;11019146;32;20033;-75
2022/05/20 01:16:08;;;;;;;3.78;2.12;;;22.40;69.60;;;;;;11022378;26;20041;-75
2022/05/20 01:22:12;;;;;;;2.30;1.40;;;22.30;69.40;;;;;;11019562;32;20026;-75
2022/05/20 01:28:16;;;;;;;3.25;1.92;;;22.40;68.80;;;;;;11005670;32;20022;-75
2022/05/20 01:34:20;;;;;;;2.50;2.03;;;22.40;68.90;;;;;;11019218;32;20041;-75
2022/05/20 01:40:22;;;;;;;5.85;1.77;;;22.20;69.30;;;;;;11005222;32;20041;-75
2022/05/20 01:46:39;;;;;;;4.53;1.73;;;22.20;69.60;;;;;;11018601;32;20029;-75
2022/05/20 01:52:54;;;;;;;2.90;1.98;;;22.10;69.60;;;;;;11018461;32;20044;-75
2022/05/20 01:59:09;;;;;;;5.37;2.45;;;22.00;70.00;;;;;;11017840;32;20026;-75
2022/05/20 02:05:37;;;;;;;1.75;1.33;;;21.90;70.40;;;;;;11019472;32;20045;-75
2022/05/20 02:11:49;;;;;;;2.17;1.40;;;21.90;70.40;;;;;;11018097;32;20021;-75
2022/05/20 02:17:55;;;;;;;6.32;1.75;;;21.80;70.80;;;;;;11017588;32;20022;-75
2022/05/20 02:24:02;;;;;;;3.08;1.73;;;21.70;71.00;;;;;;11017729;32;20045;-75
2022/05/20 02:30:10;;;;;;;1.73;1.55;;;21.60;71.30;;;;;;11017594;32;20110;-75
2022/05/20 02:36:28;;;;;;;2.45;1.73;;;21.80;71.00;;;;;;11004054;32;20019;-75
2022/05/20 02:42:30;;;;;;;4.43;1.37;;;21.60;71.30;;;;;;11017555;32;20053;-75
2022/05/20 02:48:34;;;;;;;3.35;2.03;;;21.70;71.80;;;;;;11017339;32;20341;-75
2022/05/20 02:54:36;;;;;;;4.78;1.75;;;21.80;72.00;;;;;;11017220;32;20052;-75
2022/05/20 03:07:15;;;;;;;3.58;2.10;;;21.50;71.80;;;;;;11017057;32;20022;-75
2022/05/20 03:13:19;;;;;;;3.90;2.53;;;21.50;71.40;;;;;;11016830;32;20291;-75
2022/05/20 03:19:21;;;;;;;3.47;2.08;;;21.60;71.80;;;;;;11016878;32;20038;-75
2022/05/20 03:25:23;;;;;;;3.80;2.35;;;21.50;71.80;;;;;;11016805;32;20296;-75
2022/05/20 03:31:26;;;;;;;3.25;2.47;;;21.50;72.10;;;;;;11020511;32;20014;-74
2022/05/20 03:37:28;;;;;;;3.08;2.00;;;21.50;72.00;;;;;;11019126;32;20030;-74
2022/05/20 03:43:33;;;;;;;5.00;2.22;;;21.50;72.20;;;;;;11023273;32;20339;-72
2022/05/20 03:49:42;;;;;;;3.55;2.78;;;21.50;71.20;;;;;;11022934;32;20029;-72
2022/05/20 03:55:44;;;;;;;4.45;2.80;;;21.30;71.30;;;;;;11022734;32;20014;-72
2022/05/20 04:01:58;;;;;;;3.35;2.65;;;21.20;71.70;;;;;;11022622;32;20045;-72
2022/05/20 04:08:20;;;;;;;12.37;2.12;;;21.10;72.00;;;;;;11022468;32;20014;-72
2022/05/20 04:14:25;;;;;;;2.60;2.03;;;21.20;71.60;;;;;;11022012;32;20026;-72
2022/05/20 04:20:28;;;;;;;3.53;2.28;;;21.30;71.70;;;;;;11021874;32;20054;-72
2022/05/20 04:26:45;;;;;;;3.30;2.08;;;21.10;72.00;;;;;;11008184;32;20045;-72
2022/05/20 04:32:47;;;;;;;4.55;2.17;;;21.10;72.00;;;;;;11003793;32;20381;-72
2022/05/20 04:38:50;;;;;;;2.62;2.10;;;21.10;72.10;;;;;;11021276;32;20048;-72
2022/05/20 04:51:13;;;;;;;3.87;2.53;;;21.20;72.20;;;;;;11020610;32;20057;-72
2022/05/20 04:57:24;;;;;;;4.00;2.85;;;21.30;72.00;;;;;;11016443;32;20048;-72
2022/05/20 05:03:27;;;;;;;3.28;1.90;;;21.30;72.10;;;;;;11020438;32;20413;-72
2022/05/20 05:09:30;;;;;;;2.75;2.15;;;21.30;72.10;;;;;;11020007;32;20014;-72
2022/05/20 05:15:32;;;;;;;3.30;2.22;;;21.30;72.30;;;;;;11019704;32;20022;-72
2022/05/20 05:21:35;;;;;;;2.85;1.98;;;21.30;72.50;;;;;;11019705;32;20037;-72
2022/05/20 05:27:38;;;;;;;5.20;2.80;;;21.30;72.60;;;;;;11017234;32;20389;-72
2022/05/20 05:33:50;;;;;;;4.22;2.90;;;21.50;72.60;;;;;;11005370;32;20018;-72
2022/05/20 05:39:56;;;;;;;4.65;2.92;;;21.70;72.30;;;;;;11018903;32;20371;-72
2022/05/20 05:45:58;;;;;;;4.87;2.60;;;21.80;72.10;;;;;;11018512;32;20018;-72
2022/05/20 05:52:06;;;;;;;4.93;3.05;;;21.90;72.10;;;;;;11017870;32;20026;-72
2022/05/20 05:58:09;;;;;;;9.52;2.70;;;22.00;72.00;;;;;;11018393;32;20210;-72
2022/05/20 06:04:11;;;;;;;10.88;3.33;;;22.10;71.80;;;;;;10996251;32;20034;-72
2022/05/20 06:10:14;;;;;;;7.75;3.60;;;22.30;71.70;;;;;;10981641;32;20023;-73
2022/05/20 06:16:19;;;;;;;3.62;2.60;;;22.40;71.40;;;;;;10985898;32;20022;-72
2022/05/20 06:22:21;;;;;;;4.40;2.33;;;22.60;71.50;;;;;;11010768;32;20045;-73
2022/05/20 06:28:23;;;;;;;5.55;2.47;;;22.70;71.30;;;;;;10979971;32;20030;-72
2022/05/20 06:34:25;;;;;;;4.07;2.03;;;22.70;71.20;;;;;;10986201;32;20025;-73
2022/05/20 06:40:36;;;;;;;4.82;2.72;;;22.80;70.90;;;;;;11015131;32;20085;-73
2022/05/20 06:46:38;;;;;;;3.53;2.05;;;22.90;70.50;;;;;;11016462;32;20022;-72
2022/05/20 06:52:40;;;;;;;5.20;2.28;;;22.90;70.10;;;;;;11005431;32;20045;-73
2022/05/20 06:58:44;;;;;;;1.70;1.10;;;23.10;70.00;;;;;;10978020;32;20030;-72
2022/05/20 07:04:46;;;;;;;3.30;2.15;;;23.30;69.50;;;;;;10980937;32;20030;-72
2022/05/20 07:11:09;;;;;;;4.47;1.83;;;23.30;69.00;;;;;;10986097;32;20050;-73
2022/05/20 07:17:20;;;;;;;1.50;1.10;;;23.30;68.40;;;;;;10985598;32;20022;-72
2022/05/20 07:23:25;;;;;;;1.75;1.65;;;23.30;68.10;;;;;;10985454;32;20022;-73
2022/05/20 07:29:27;;;;;;;3.35;1.10;;;23.40;67.40;;;;;;10971901;32;20058;-72
2022/05/20 07:35:31;;;;;;;2.10;1.45;;;23.40;67.20;;;;;;10990112;32;20398;-73
2022/05/20 07:41:35;;;;;;;2.08;1.20;;;23.50;66.80;;;;;;10997188;32;20395;-72
2022/05/20 07:47:46;;;;;;;2.62;1.37;;;23.70;66.60;;;;;;10981438;32;20339;-72
2022/05/20 07:53:56;;;;;;;2.33;1.65;;;23.80;66.40;;;;;;10984762;32;20046;-72
2022/05/20 07:59:58;;;;;;;2.03;1.33;;;24.00;66.30;;;;;;10984508;32;20476;-72
2022/05/20 08:06:21;;;;;;;2.62;1.77;;;24.10;65.70;;;;;;10984495;32;20022;-72
2022/05/20 08:12:24;;;;;;;2.40;1.25;;;24.20;64.70;;;;;;10983565;32;20048;-72
2022/05/20 08:18:26;;;;;;;0.85;0.82;;;24.20;64.50;;;;;;10983336;32;20018;-72
2022/05/20 08:24:29;;;;;;;6.18;2.03;;;24.30;64.10;;;;;;10983706;32;20054;-72
2022/05/20 08:30:32;;;;;;;1.23;1.10;;;24.30;63.20;;;;;;10969782;32;20052;-72
2022/05/20 08:36:35;;;;;;;1.73;1.17;;;24.50;62.30;;;;;;10983143;32;20010;-72
2022/05/20 08:42:38;;;;;;;2.08;1.10;;;24.60;62.10;;;;;;10983048;32;20045;-72
2022/05/20 08:48:45;;;;;;;3.87;1.87;;;24.70;61.80;;;;;;10982459;32;20064;-72
2022/05/20 08:54:54;;;;;;;2.53;1.73;;;24.80;60.80;;;;;;10982588;32;20018;-72
2022/05/20 09:00:56;;;;;;;2.15;1.35;;;24.90;60.70;;;;;;10982202;32;20322;-72
2022/05/20 09:06:58;;;;;;;4.35;1.37;;;25.00;60.40;;;;;;10981713;32;20053;-76
2022/05/20 09:15:43;;;;;;;1.80;1.52;;;25.20;59.50;;;;;;10723986;27;12407004;-73
2022/05/20 09:20:02;;;;;;;6.85;2.08;;;25.30;57.90;;;;;;10901328;32;20384;-73
2022/05/20 09:26:10;;;;;;;3.00;1.90;;;25.40;57.80;;;;;;10902090;32;20050;-75
2022/05/20 09:32:21;;;;;;;2.37;1.17;;;25.50;57.40;;;;;;10901786;32;20031;-73
2022/05/20 09:38:35;;;;;;;2.60;1.60;;;25.70;56.90;;;;;;10893366;32;20027;-72
2022/05/20 09:44:40;;;;;;;3.92;2.75;;;25.80;56.40;;;;;;10939837;32;20049;-74
2022/05/20 09:51:07;;;;;;;7.35;3.72;;;25.90;56.10;;;;;;10929592;32;20022;-72
2022/05/20 09:57:19;;;;;;;3.83;2.60;;;26.00;55.20;;;;;;10942780;32;20027;-72
2022/05/20 10:03:37;;;;;;;4.45;2.90;;;26.20;55.80;;;;;;10942482;32;20041;-72
2022/05/20 10:09:53;;;;;;;8.68;2.75;;;26.30;55.40;;;;;;10942456;32;20031;-73
2022/05/20 10:16:05;;;;;;;2.30;1.73;;;26.40;55.60;;;;;;10937975;32;20018;-72
2022/05/20 10:22:45;;;;;;;5.85;1.90;;;26.60;55.10;;;;;;10942089;32;20026;-72
2022/05/20 10:35:24;;;;;;;1.65;1.30;;;26.80;55.30;;;;;;10935115;32;20043;-73
2022/05/20 10:41:48;;;;;;;2.53;1.37;;;27.10;54.80;;;;;;10909906;32;20019;-73
2022/05/20 10:55:13;;;;;;;1.70;1.30;;;27.40;54.00;;;;;;10911536;32;20422;-73
2022/05/20 11:01:29;;;;;;;1.98;1.30;;;27.70;53.60;;;;;;10895730;32;20426;-73
2022/05/20 11:07:36;;;;;;;1.65;0.88;;;27.80;53.30;;;;;;10910985;32;20019;-73
2022/05/20 11:13:50;;;;;;;2.37;1.17;;;28.00;53.00;;;;;;10910829;32;20447;-72
2022/05/20 11:20:43;;;;;;;0.75;0.65;;;28.40;51.60;;;;;;10910464;32;20023;-72
2022/05/20 11:26:58;;;;;;;1.33;0.95;;;28.60;51.20;;;;;;10909758;32;20019;-73
2022/05/20 11:33:27;;;;;;;2.33;1.42;;;28.90;50.50;;;;;;10905503;32;20053;-73
2022/05/20 11:39:51;;;;;;;3.60;1.33;;;29.10;50.10;;;;;;10905855;32;20019;-74
2022/05/20 11:46:15;;;;;;;1.85;1.00;;;29.30;48.80;;;;;;10909586;32;20054;-72
2022/05/20 11:52:17;;;;;;;9.23;1.52;;;29.30;48.30;;;;;;10895395;32;20410;-72
2022/05/20 11:58:33;;;;;;;1.65;1.25;;;29.40;48.00;;;;;;10909544;32;20399;-72
2022/05/20 12:04:39;;;;;;;2.83;1.35;;;29.50;48.00;;;;;;10906251;32;20335;-72
2022/05/20 12:11:18;;;;;;;3.67;1.30;;;29.60;48.00;;;;;;10908036;32;20028;-75
2022/05/20 12:17:42;;;;;;;2.87;1.70;;;29.60;47.70;;;;;;10813718;32;20054;-73
2022/05/20 12:24:13;;;;;;;1.73;1.02;;;29.60;47.50;;;;;;10827395;32;20369;-72
2022/05/20 12:30:18;;;;;;;4.47;1.23;;;29.60;47.10;;;;;;10826110;32;20110;-72
2022/05/20 12:42:59;;;;;;;2.50;1.25;;;29.60;47.60;;;;;;10826290;32;20054;-72
2022/05/20 12:49:02;;;;;;;2.92;1.50;;;29.50;47.80;;;;;;10907259;32;20014;-72
2022/05/20 12:55:21;;;;;;;1.92;1.00;;;29.60;47.30;;;;;;10907015;32;20018;-72
2022/05/20 13:01:24;;;;;;;2.85;0.80;;;29.40;48.00;;;;;;10906989;32;20011;-72
2022/05/20 13:07:27;;;;;;;2.92;1.42;;;29.40;47.80;;;;;;10905305;32;20442;-76
2022/05/20 13:13:34;;;;;;;3.05;1.00;;;29.30;47.20;;;;;;10925541;32;20026;-74
2022/05/20 13:19:46;;;;;;;3.40;1.20;;;29.40;46.90;;;;;;10943971;32;20417;-73
2022/05/20 13:25:48;;;;;;;3.20;1.58;;;29.50;46.20;;;;;;10939384;32;20030;-73
2022/05/20 13:31:50;;;;;;;2.15;1.37;;;29.30;45.90;;;;;;10941360;32;20027;-74
2022/05/20 13:37:55;;;;;;;4.80;1.60;;;29.30;45.80;;;;;;10934789;32;20116;-75
2022/05/20 13:44:03;;;;;;;8.00;1.35;;;29.30;45.60;;;;;;10925441;32;20037;-73
2022/05/20 13:50:10;;;;;;;2.65;1.35;;;29.30;45.50;;;;;;10903063;32;20406;-75
2022/05/20 13:56:13;;;;;;;;;;;29.30;46.10;;;;;;10912822;32;20024;-74
2022/05/20 14:02:18;;;;;;;12.60;2.00;;;29.20;46.30;;;;;;10926047;32;19941;-73
2022/05/20 14:08:22;;;;;;;6.80;1.25;;;29.00;46.40;;;;;;10938853;32;20027;-73
2022/05/20 14:14:29;;;;;;;6.40;1.33;;;29.00;46.60;;;;;;10915488;32;20349;-73
2022/05/20 14:20:39;;;;;;;2.77;1.50;;;29.00;46.80;;;;;;10899974;32;20026;-73
2022/05/20 14:26:51;;;;;;;4.65;1.20;;;28.90;48.80;;;;;;10935312;32;20139;-72
2022/05/20 14:32:57;;;;;;;3.70;1.00;;;28.70;49.10;;;;;;10916562;32;20049;-73
2022/05/20 14:39:02;;;;;;;1.30;1.05;;;28.60;48.90;;;;;;10934638;32;20042;-74
2022/05/20 14:45:35;;;;;;;15.88;1.58;;;28.80;48.90;;;;;;10941262;32;20042;-72
2022/05/20 14:51:45;;;;;;;1.37;0.77;;;28.60;49.20;;;;;;10741245;32;20028;-72
2022/05/20 14:58:43;;;;;;;1.67;1.02;;;28.60;49.00;;;;;;10720104;33;20033;-74
2022/05/20 15:04:46;;;;;;;8.17;1.17;;;28.60;48.80;;;;;;10737159;32;20028;-72
2022/05/20 15:11:19;;;;;;;11.18;1.77;;;28.60;49.40;;;;;;10716592;33;20051;-72
2022/05/20 15:17:21;;;;;;;4.28;1.30;;;28.60;49.10;;;;;;10677657;33;20049;-73
2022/05/20 15:24:01;;;;;;;2.00;0.62;;;28.60;49.10;;;;;;10676466;33;20048;-74
2022/05/20 15:30:05;;;;;;;3.55;0.80;;;28.60;48.80;;;;;;10816771;32;20420;-73
2022/05/20 15:36:07;;;;;;;3.78;1.87;;;28.80;48.20;;;;;;10831321;32;20024;-72
2022/05/20 15:42:12;;;;;;;7.75;1.77;;;28.80;48.10;;;;;;10832183;32;20361;-72
2022/05/20 15:48:17;;;;;;;1.83;0.93;;;28.70;48.70;;;;;;10799291;32;20032;-72
2022/05/20 15:54:25;;;;;;;3.00;1.58;;;28.70;49.30;;;;;;10908942;32;20124;-72
2022/05/20 16:00:28;;;;;;;3.00;1.23;;;28.80;48.90;;;;;;10923530;32;20038;-73
2022/05/20 16:06:38;;;;;;;0.82;0.75;;;28.80;50.10;;;;;;10940900;32;20441;-73
2022/05/20 16:12:40;;;;;;;1.73;0.93;;;28.60;50.00;;;;;;10940339;32;20057;-72
2022/05/20 16:18:43;;;;;;;2.85;0.85;;;28.60;50.20;;;;;;10940889;32;20041;-72
2022/05/20 16:24:59;;;;;;;4.12;1.37;;;28.70;50.20;;;;;;10923252;32;20395;-71
2022/05/20 16:31:03;;;;;;;1.42;1.27;;;28.80;49.70;;;;;;10907389;32;20015;-71
2022/05/20 16:37:05;;;;;;;4.72;1.25;;;28.80;49.20;;;;;;10906060;32;20027;-74
2022/05/20 16:43:24;;;;;;;8.27;1.23;;;28.80;49.20;;;;;;10907467;32;20046;-71
2022/05/20 16:49:29;;;;;;;5.87;1.33;;;28.80;49.60;;;;;;10907091;32;20027;-72
2022/05/20 16:55:33;;;;;;;3.17;1.02;;;28.60;50.20;;;;;;10940107;32;20035;-72
2022/05/20 17:01:47;;;;;;;4.10;0.70;;;28.50;50.20;;;;;;10930824;32;20015;-72
2022/05/20 17:07:48;;;;;;;1.48;1.02;;;28.50;50.20;;;;;;10943570;32;20015;-72
2022/05/20 17:13:50;;;;;;;5.68;0.90;;;28.50;50.20;;;;;;10939242;27;20035;-72
2022/05/20 17:19:53;;;;;;;2.40;1.62;;;28.40;50.80;;;;;;10895250;32;20057;-72
2022/05/20 17:26:07;;;;;;;1.60;1.30;;;28.40;50.40;;;;;;10896500;32;20062;-72
2022/05/20 17:32:13;;;;;;;4.20;1.87;;;28.40;50.50;;;;;;10885006;32;20062;-72
2022/05/20 17:38:16;;;;;;;5.18;2.75;;;28.30;50.80;;;;;;10867594;32;20020;-72
2022/05/20 17:44:18;;;;;;;1.73;1.40;;;28.60;50.40;;;;;;10868021;32;20031;-72
2022/05/20 17:50:40;;;;;;;5.30;2.00;;;28.90;50.10;;;;;;10874998;32;20427;-72
2022/05/20 17:56:42;;;;;;;5.00;1.55;;;28.90;50.30;;;;;;10867614;32;20020;-72
2022/05/20 18:02:44;;;;;;;2.50;1.42;;;29.30;49.60;;;;;;10867700;32;20336;-72
2022/05/20 18:08:47;;;;;;;1.15;0.77;;;28.80;50.40;;;;;;10867510;32;20020;-72
2022/05/20 18:14:51;;;;;;;1.67;0.93;;;28.30;51.40;;;;;;10863331;32;20024;-72
2022/05/20 18:21:01;;;;;;;2.00;1.23;;;28.00;52.20;;;;;;10867198;32;20029;-72
2022/05/20 18:27:13;;;;;;;2.58;1.20;;;27.70;53.30;;;;;;10885324;32;20426;-72
2022/05/20 18:33:16;;;;;;;3.70;0.85;;;27.30;53.70;;;;;;10904030;32;20066;-72
2022/05/20 18:39:18;;;;;;;2.03;0.88;;;27.20;54.20;;;;;;10904193;32;20327;-72
2022/05/20 18:45:22;;;;;;;1.85;1.17;;;27.00;54.80;;;;;;10902893;32;20399;-72
2022/05/20 18:51:24;;;;;;;1.62;0.80;;;26.80;55.40;;;;;;10866615;32;20057;-72
2022/05/20 18:58:04;;;;;;;3.10;1.10;;;26.70;55.70;;;;;;10866420;32;20054;-72
2022/05/20 19:04:56;;;;;;;1.90;1.25;;;26.60;56.10;;;;;;10796957;33;20024;-72
2022/05/20 19:10:58;;;;;;;2.15;0.98;;;26.50;56.70;;;;;;10795567;33;20418;-72
2022/05/20 19:17:00;;;;;;;2.50;1.02;;;26.30;57.00;;;;;;10794878;33;20063;-72
2022/05/20 19:23:03;;;;;;;2.50;1.50;;;26.30;58.00;;;;;;10795082;33;20333;-72
2022/05/20 19:29:05;;;;;;;1.77;1.08;;;26.20;58.60;;;;;;10803327;32;20051;-72
2022/05/20 19:35:10;;;;;;;2.67;1.45;;;26.10;58.60;;;;;;10828412;32;20061;-72
2022/05/20 19:41:13;;;;;;;2.45;1.20;;;26.10;58.60;;;;;;10863582;32;20392;-72
2022/05/20 19:47:14;;;;;;;2.20;0.80;;;26.00;58.90;;;;;;10872249;32;20054;-72
2022/05/20 19:53:17;;;;;;;2.95;1.05;;;25.80;59.70;;;;;;10872097;32;20054;-72
2022/05/20 20:05:42;;;;;;;4.55;1.20;;;25.80;60.20;;;;;;10871879;32;20024;-72
2022/05/20 20:11:44;;;;;;;1.23;0.90;;;25.70;60.20;;;;;;10870856;32;20314;-71
2022/05/20 20:17:46;;;;;;;1.85;1.20;;;25.60;60.90;;;;;;10871299;32;20015;-72
2022/05/20 20:30:10;;;;;;;9.25;1.83;;;25.50;61.50;;;;;;10870944;32;20459;-72
2022/05/20 20:36:12;;;;;;;1.95;1.00;;;25.50;61.40;;;;;;10870484;32;20028;-72
2022/05/20 20:42:16;;;;;;;3.03;0.85;;;25.40;61.50;;;;;;10870539;32;20015;-72
2022/05/20 20:48:18;;;;;;;1.67;1.10;;;25.30;61.80;;;;;;10870276;32;20019;-72
2022/05/20 20:54:21;;;;;;;2.40;1.15;;;25.20;62.30;;;;;;10870120;32;20078;-72
2022/05/20 21:00:24;;;;;;;1.80;1.12;;;25.10;62.50;;;;;;10869857;32;20039;-72
2022/05/20 21:06:28;;;;;;;2.28;1.12;;;25.10;62.70;;;;;;10854116;32;20024;-72
2022/05/20 21:12:30;;;;;;;1.45;1.23;;;25.00;63.00;;;;;;10869602;32;20073;-72
2022/05/20 21:18:32;;;;;;;1.95;1.10;;;25.00;63.60;;;;;;10868462;32;20046;-72
2022/05/20 21:24:34;;;;;;;2.55;1.45;;;25.00;63.40;;;;;;10868175;32;20027;-72
2022/05/20 21:30:37;;;;;;;3.60;1.42;;;25.00;63.70;;;;;;10868778;32;20015;-72
2022/05/20 21:36:40;;;;;;;2.92;1.62;;;24.90;63.80;;;;;;10866976;32;20019;-72
2022/05/20 21:42:43;;;;;;;2.45;1.12;;;24.90;63.90;;;;;;10868475;32;20038;-72
2022/05/20 21:48:46;;;;;;;2.45;1.37;;;24.80;64.40;;;;;;10855007;32;20360;-72
2022/05/20 21:54:49;;;;;;;2.55;1.27;;;24.80;64.70;;;;;;10890835;32;20054;-72
2022/05/20 22:13:33;;;;;;;2.15;1.55;;;24.60;66.20;;;;;;10904851;32;20049;-71
2022/05/20 22:19:36;;;;;;;1.35;1.00;;;24.40;67.00;;;;;;10904722;32;20019;-71
2022/05/20 22:25:38;;;;;;;3.22;1.65;;;24.40;67.00;;;;;;10901172;32;20023;-71
2022/05/20 22:31:40;;;;;;;2.03;1.12;;;24.30;67.50;;;;;;10900873;32;20055;-74
2022/05/20 22:37:43;;;;;;;3.90;1.73;;;24.30;67.70;;;;;;10903970;32;20101;-74
2022/05/20 22:43:45;;;;;;;2.17;1.42;;;24.30;68.00;;;;;;10904222;32;20042;-74
2022/05/20 22:49:47;;;;;;;3.83;1.77;;;24.20;68.10;;;;;;10899833;32;20049;-74
2022/05/20 22:56:09;;;;;;;2.92;1.50;;;24.10;68.70;;;;;;10904090;32;20061;-74
2022/05/20 23:02:11;;;;;;;2.65;1.42;;;24.00;69.00;;;;;;10901264;32;20019;-74
2022/05/20 23:08:14;;;;;;;7.05;1.35;;;24.00;68.90;;;;;;10899659;32;20046;-71
2022/05/20 23:14:16;;;;;;;2.67;1.50;;;24.00;68.40;;;;;;10890240;32;20041;-71
2022/05/20 23:20:20;;;;;;;2.55;1.73;;;24.00;68.10;;;;;;10903608;32;20061;-71
2022/05/20 23:26:26;;;;;;;2.67;1.37;;;24.00;68.10;;;;;;10890194;32;20031;-71
2022/05/20 23:32:28;;;;;;;1.73;1.20;;;23.80;68.30;;;;;;10903464;32;20062;-71
2022/05/20 23:38:31;;;;;;;2.70;1.85;;;23.80;68.30;;;;;;10902920;32;20047;-71
2022/05/20 23:44:35;;;;;;;1.83;1.45;;;23.80;68.40;;;;;;10903112;32;20023;-71
2022/05/20 23:50:38;;;;;;;1.62;1.10;;;23.70;68.40;;;;;;10909109;32;20027;-71
